Terminal Aerodrome Forecast
Issued by NWS Charleston, WV

Home | Current Version | Previous Version | Text Only | Print | Product List | Glossary On
Versions: 1 2 3 4 5 6 7 8 9 10 11 12 13 14 15 16 17 18 19 20 21 22 23 24
000
FTUS41 KRLX 281736
TAFEKN
TAF
KEKN 281736Z 2818/2918 25004KT P6SM OVC028
     FM282100 26005KT P6SM VCTS BKN040CB
      TEMPO 2821/2823 2SM TSRA OVC040CB
     FM282300 25004KT P6SM BKN045
     FM290700 22006KT 5SM SHRA BKN022
     FM290800 25007KT P6SM BKN008
     FM291300 29008KT P6SM BKN013
     FM291400 28008KT P6SM SCT023=

USA.gov is the U.S. government's official web portal to all federal, state and local government web resources and services.